Time;durP1;ratioP1;P1;durP2;ratioP2;P2;SDS_P1;SDS_P2;PMS_P1;PMS_P2;Temp;Humidity;BMP_temperature;BMP_pressure;BME280_temperature;BME280_humidity;BME280_pressure;Samples;Min_cycle;Max_cycle;Signal;HPM_P1;HPM_P2
2022/12/04 00:01:56;;;;;;;;;;;;;;;;;;5106980;28;19911;-50
2022/12/04 00:04:22;;;;;;;;;;;;;;;;;;5115348;28;20311;-50
2022/12/04 00:06:48;;;;;;;;;;;;;;;;;;5136616;22;20021;-56
2022/12/04 00:09:14;;;;;;;;;;;;;;;;;;5074012;28;20010;-57
2022/12/04 00:11:40;;;;;;;;;;;;;;;;;;5074839;28;20007;-55
2022/12/04 00:14:06;;;;;;;;;;;;;;;;;;5074547;28;19916;-55
2022/12/04 00:16:32;;;;;;;;;;;;;;;;;;5074451;28;19943;-57
2022/12/04 00:18:58;;;;;;;;;;;;;;;;;;5074393;28;19958;-55
2022/12/04 00:21:24;;;;;;;;;;;;;;;;;;5074796;28;19965;-54
2022/12/04 00:23:49;;;;;;;;;;;;;;;;;;5074551;28;19920;-55
2022/12/04 00:26:15;;;;;;;;;;;;;;;;;;5074346;28;20342;-58
2022/12/04 00:28:41;;;;;;;;;;;;;;;;;;5064017;28;19908;-56
2022/12/04 00:31:07;;;;;;;;;;;;;;;;;;5054672;28;20391;-53
2022/12/04 00:33:33;;;;;;;;;;;;;;;;;;5072145;28;20288;-55
2022/12/04 00:35:59;;;;;;;;;;;;;;;;;;5073243;28;19971;-55
2022/12/04 00:38:25;;;;;;;;;;;;;;;;;;5074483;28;19916;-56
2022/12/04 00:40:51;;;;;;;;;;;;;;;;;;5073948;28;19920;-55
2022/12/04 00:43:17;;;;;;;;;;;;;;;;;;5073733;28;19912;-57
2022/12/04 00:45:43;;;;;;;;;;;;;;;;;;5073977;28;20364;-54
2022/12/04 00:48:09;;;;;;;;;;;;;;;;;;5072534;28;19912;-57
2022/12/04 00:50:34;;;;;;;;;;;;;;;;;;5073896;28;19917;-57
2022/12/04 00:53:00;;;;;;;;;;;;;;;;;;5074482;28;19909;-55
2022/12/04 00:55:26;;;;;;;;;;;;;;;;;;5072763;28;20335;-56
2022/12/04 00:57:52;;;;;;;;;;;;;;;;;;5073827;28;19917;-56
2022/12/04 01:00:18;;;;;;;;;;;;;;;;;;5073454;28;19912;-56
2022/12/04 01:02:44;;;;;;;;;;;;;;;;;;5073594;28;20293;-52
2022/12/04 01:05:10;;;;;;;;;;;;;;;;;;5073886;28;19927;-55
2022/12/04 01:07:36;;;;;;;;;;;;;;;;;;5073567;28;19923;-56
2022/12/04 01:10:02;;;;;;;;;;;;;;;;;;5073411;28;19912;-55
2022/12/04 01:12:27;;;;;;;;;;;;;;;;;;5072836;28;20300;-55
2022/12/04 01:14:53;;;;;;;;;;;;;;;;;;5073175;28;19917;-56
2022/12/04 01:17:19;;;;;;;;;;;;;;;;;;5073482;28;19912;-56
2022/12/04 01:19:45;;;;;;;;;;;;;;;;;;5073185;28;19917;-55
2022/12/04 01:22:11;;;;;;;;;;;;;;;;;;5073603;28;20304;-58
2022/12/04 01:24:37;;;;;;;;;;;;;;;;;;5073413;28;19915;-57
2022/12/04 01:27:03;;;;;;;;;;;;;;;;;;5073174;28;19912;-57
2022/12/04 01:29:29;;;;;;;;;;;;;;;;;;5073357;28;20096;-54
2022/12/04 01:31:55;;;;;;;;;;;;;;;;;;5072698;28;19921;-55
2022/12/04 01:34:21;;;;;;;;;;;;;;;;;;5072771;28;20323;-53
2022/12/04 01:36:47;;;;;;;;;;;;;;;;;;5073134;28;19909;-53
2022/12/04 01:39:13;;;;;;;;;;;;;;;;;;5072785;28;20358;-55
2022/12/04 01:41:39;;;;;;;;;;;;;;;;;;5073158;28;20006;-53
2022/12/04 01:44:04;;;;;;;;;;;;;;;;;;5072985;28;19915;-54
2022/12/04 01:46:30;;;;;;;;;;;;;;;;;;5072457;28;19935;-52
2022/12/04 01:48:56;;;;;;;;;;;;;;;;;;5072285;28;20383;-55
2022/12/04 01:51:22;;;;;;;;;;;;;;;;;;5072826;28;20020;-55
2022/12/04 01:53:48;;;;;;;;;;;;;;;;;;5072724;28;19915;-56
2022/12/04 01:56:14;;;;;;;;;;;;;;;;;;5072785;28;19916;-53
2022/12/04 01:58:40;;;;;;;;;;;;;;;;;;5072443;28;19908;-56
2022/12/04 02:01:06;;;;;;;;;;;;;;;;;;5072531;28;19912;-54
2022/12/04 02:03:32;;;;;;;;;;;;;;;;;;5072343;28;19909;-53
2022/12/04 02:05:58;;;;;;;;;;;;;;;;;;5072417;28;19924;-56
2022/12/04 02:08:24;;;;;;;;;;;;;;;;;;5072361;28;19923;-56
2022/12/04 02:10:50;;;;;;;;;;;;;;;;;;5072555;28;19924;-55
2022/12/04 02:13:15;;;;;;;;;;;;;;;;;;5072421;28;19913;-56
2022/12/04 02:15:41;;;;;;;;;;;;;;;;;;5072104;28;19912;-54
2022/12/04 02:18:07;;;;;;;;;;;;;;;;;;5072297;28;19916;-54
2022/12/04 02:20:33;;;;;;;;;;;;;;;;;;5072614;28;20296;-55
2022/12/04 02:22:59;;;;;;;;;;;;;;;;;;5071981;28;19938;-54
2022/12/04 02:25:25;;;;;;;;;;;;;;;;;;5072194;28;19920;-54
2022/12/04 02:27:51;;;;;;;;;;;;;;;;;;5071869;28;20371;-53
2022/12/04 02:30:17;;;;;;;;;;;;;;;;;;5071821;28;19959;-55
2022/12/04 02:32:43;;;;;;;;;;;;;;;;;;5072157;28;20007;-53
2022/12/04 02:35:09;;;;;;;;;;;;;;;;;;5071933;28;19916;-56
2022/12/04 02:37:34;;;;;;;;;;;;;;;;;;5071896;28;19912;-56
2022/12/04 02:40:00;;;;;;;;;;;;;;;;;;5071931;28;19912;-55
2022/12/04 02:42:26;;;;;;;;;;;;;;;;;;5071933;28;19928;-55
2022/12/04 02:44:52;;;;;;;;;;;;;;;;;;5072050;28;20313;-54
2022/12/04 02:47:18;;;;;;;;;;;;;;;;;;5071704;28;19912;-55
2022/12/04 02:49:44;;;;;;;;;;;;;;;;;;5071671;28;19919;-54
2022/12/04 02:52:10;;;;;;;;;;;;;;;;;;5071533;28;20019;-53
2022/12/04 02:54:36;;;;;;;;;;;;;;;;;;5071951;28;19913;-56
2022/12/04 02:57:02;;;;;;;;;;;;;;;;;;5071649;28;19912;-54
2022/12/04 02:59:28;;;;;;;;;;;;;;;;;;5071792;28;20324;-55
2022/12/04 03:01:53;;;;;;;;;;;;;;;;;;5071625;28;19926;-55
2022/12/04 03:04:19;;;;;;;;;;;;;;;;;;5070353;28;19917;-56
2022/12/04 03:06:45;;;;;;;;;;;;;;;;;;5071475;28;19961;-55
2022/12/04 03:09:11;;;;;;;;;;;;;;;;;;5071522;28;19916;-56
2022/12/04 03:11:37;;;;;;;;;;;;;;;;;;5071520;28;19912;-53
2022/12/04 03:14:03;;;;;;;;;;;;;;;;;;5071970;28;19912;-55
2022/12/04 03:16:29;;;;;;;;;;;;;;;;;;5071520;28;19912;-56
2022/12/04 03:18:55;;;;;;;;;;;;;;;;;;5071514;28;19933;-56
2022/12/04 03:21:21;;;;;;;;;;;;;;;;;;5071982;28;19916;-52
2022/12/04 03:23:47;;;;;;;;;;;;;;;;;;5071511;28;19913;-55
2022/12/04 03:26:13;;;;;;;;;;;;;;;;;;5071394;28;19908;-54
2022/12/04 03:28:39;;;;;;;;;;;;;;;;;;5071612;28;19923;-54
2022/12/04 03:31:04;;;;;;;;;;;;;;;;;;5071326;28;20380;-53
2022/12/04 03:33:30;;;;;;;;;;;;;;;;;;5071600;28;19919;-53
2022/12/04 03:35:56;;;;;;;;;;;;;;;;;;5075431;28;20312;-53
2022/12/04 03:38:22;;;;;;;;;;;;;;;;;;5075387;28;19912;-53
2022/12/04 03:40:48;;;;;;;;;;;;;;;;;;5073971;28;19948;-55
2022/12/04 03:43:14;;;;;;;;;;;;;;;;;;5058822;28;20448;-55
2022/12/04 03:45:40;;;;;;;;;;;;;;;;;;5058726;28;19997;-54
2022/12/04 03:48:06;;;;;;;;;;;;;;;;;;5075129;28;20050;-54
2022/12/04 03:50:32;;;;;;;;;;;;;;;;;;5070934;28;20054;-54
2022/12/04 03:52:58;;;;;;;;;;;;;;;;;;5054817;28;19909;-55
2022/12/04 03:55:24;;;;;;;;;;;;;;;;;;5064664;28;19912;-57
2022/12/04 03:57:49;;;;;;;;;;;;;;;;;;5074848;28;19916;-56
2022/12/04 04:00:15;;;;;;;;;;;;;;;;;;5073128;28;19969;-55
2022/12/04 04:02:41;;;;;;;;;;;;;;;;;;5072418;28;19919;-54
2022/12/04 04:05:07;;;;;;;;;;;;;;;;;;5074767;28;19912;-55
2022/12/04 04:07:33;;;;;;;;;;;;;;;;;;5074812;28;19917;-54
2022/12/04 04:09:59;;;;;;;;;;;;;;;;;;5073423;28;20151;-54
2022/12/04 04:12:26;;;;;;;;;;;;;;;;;;5074345;28;20399;-54
2022/12/04 04:25:50;;;;;;;;;;;;;;;;;;5071177;28;19923;-52
2022/12/04 04:28:16;;;;;;;;;;;;;;;;;;5074357;28;19913;-53
2022/12/04 04:30:42;;;;;;;;;;;;;;;;;;5072271;28;20015;-52
2022/12/04 04:33:08;;;;;;;;;;;;;;;;;;5064829;28;20445;-52
2022/12/04 04:35:34;;;;;;;;;;;;;;;;;;5068371;28;19919;-53
2022/12/04 04:38:00;;;;;;;;;;;;;;;;;;5074682;28;20011;-53
2022/12/04 04:40:25;;;;;;;;;;;;;;;;;;5069647;28;20011;-56
2022/12/04 04:42:51;;;;;;;;;;;;;;;;;;5074429;28;20365;-56
2022/12/04 04:45:17;;;;;;;;;;;;;;;;;;5072993;28;19954;-53
2022/12/04 04:47:43;;;;;;;;;;;;;;;;;;5072438;28;20011;-52
2022/12/04 04:50:09;;;;;;;;;;;;;;;;;;5074091;28;20376;-54
2022/12/04 04:52:35;;;;;;;;;;;;;;;;;;5073925;28;19999;-55
2022/12/04 04:55:01;;;;;;;;;;;;;;;;;;5072090;28;20003;-55
2022/12/04 04:57:27;;;;;;;;;;;;;;;;;;5074061;28;20011;-57
2022/12/04 04:59:53;;;;;;;;;;;;;;;;;;5073533;28;19913;-52
2022/12/04 05:02:19;;;;;;;;;;;;;;;;;;5073009;28;19912;-52
2022/12/04 05:04:45;;;;;;;;;;;;;;;;;;5072486;28;19938;-52
2022/12/04 05:07:10;;;;;;;;;;;;;;;;;;5073202;28;20005;-55
2022/12/04 05:09:36;;;;;;;;;;;;;;;;;;5073862;28;19908;-55
2022/12/04 05:12:02;;;;;;;;;;;;;;;;;;5073345;28;20288;-55
2022/12/04 05:14:28;;;;;;;;;;;;;;;;;;5073550;28;19913;-56
2022/12/04 05:16:54;;;;;;;;;;;;;;;;;;5073277;28;19916;-52
2022/12/04 05:22:05;;;;;;;;;;;;;;;;;;5073576;28;19919;-52
2022/12/04 05:24:31;;;;;;;;;;;;;;;;;;5073847;28;19916;-52
2022/12/04 05:26:57;;;;;;;;;;;;;;;;;;5073547;28;19955;-54
2022/12/04 05:29:23;;;;;;;;;;;;;;;;;;5073542;28;20030;-54
2022/12/04 05:31:49;;;;;;;;;;;;;;;;;;5073182;28;19916;-55
2022/12/04 05:34:14;;;;;;;;;;;;;;;;;;5073425;28;19913;-53
2022/12/04 05:36:40;;;;;;;;;;;;;;;;;;5073359;28;19913;-53
2022/12/04 05:39:06;;;;;;;;;;;;;;;;;;5071782;28;19966;-56
2022/12/04 05:41:32;;;;;;;;;;;;;;;;;;5072978;28;19919;-56
2022/12/04 05:43:58;;;;;;;;;;;;;;;;;;5067247;28;19952;-54
2022/12/04 05:46:24;;;;;;;;;;;;;;;;;;5072973;28;19963;-54
2022/12/04 05:48:50;;;;;;;;;;;;;;;;;;5072709;28;20322;-53
2022/12/04 05:51:16;;;;;;;;;;;;;;;;;;5072846;28;19916;-55
2022/12/04 05:53:42;;;;;;;;;;;;;;;;;;5071596;28;19928;-56
2022/12/04 05:56:08;;;;;;;;;;;;;;;;;;5072976;28;19920;-55
2022/12/04 05:58:34;;;;;;;;;;;;;;;;;;5072232;28;19916;-53
2022/12/04 06:01:00;;;;;;;;;;;;;;;;;;5072745;28;19916;-53
2022/12/04 06:03:25;;;;;;;;;;;;;;;;;;5072596;28;19912;-52
2022/12/04 06:05:51;;;;;;;;;;;;;;;;;;5072825;28;20002;-55
2022/12/04 06:08:17;;;;;;;;;;;;;;;;;;5072576;28;20355;-56
2022/12/04 06:10:43;;;;;;;;;;;;;;;;;;5072855;28;19908;-56
2022/12/04 06:13:09;;;;;;;;;;;;;;;;;;5072577;28;19917;-53
2022/12/04 06:15:35;;;;;;;;;;;;;;;;;;5071411;28;20288;-52
2022/12/04 06:18:01;;;;;;;;;;;;;;;;;;5072702;28;19912;-55
2022/12/04 06:20:27;;;;;;;;;;;;;;;;;;5072144;28;20280;-53
2022/12/04 06:22:53;;;;;;;;;;;;;;;;;;5072688;28;19912;-55
2022/12/04 06:25:19;;;;;;;;;;;;;;;;;;5072250;28;19913;-56
2022/12/04 06:27:45;;;;;;;;;;;;;;;;;;5072210;28;19920;-56
2022/12/04 06:30:11;;;;;;;;;;;;;;;;;;5072425;28;19909;-54
2022/12/04 06:32:37;;;;;;;;;;;;;;;;;;5067889;28;19963;-53
2022/12/04 06:35:03;;;;;;;;;;;;;;;;;;5052464;28;19948;-53
2022/12/04 06:37:29;;;;;;;;;;;;;;;;;;5052380;28;19916;-53
2022/12/04 06:39:54;;;;;;;;;;;;;;;;;;5052291;28;20003;-53
2022/12/04 06:42:20;;;;;;;;;;;;;;;;;;5052508;28;19991;-57
2022/12/04 06:44:46;;;;;;;;;;;;;;;;;;5057109;28;20325;-53
2022/12/04 06:47:12;;;;;;;;;;;;;;;;;;5072421;28;20294;-54
2022/12/04 06:49:38;;;;;;;;;;;;;;;;;;5072291;28;19909;-55
2022/12/04 06:52:04;;;;;;;;;;;;;;;;;;5072142;28;19956;-54
2022/12/04 06:54:30;;;;;;;;;;;;;;;;;;5071857;28;19921;-48
2022/12/04 06:56:56;;;;;;;;;;;;;;;;;;5070411;28;19913;-48
2022/12/04 06:59:22;;;;;;;;;;;;;;;;;;5072106;28;19912;-48
2022/12/04 07:01:48;;;;;;;;;;;;;;;;;;5072410;28;20008;-48
2022/12/04 07:04:14;;;;;;;;;;;;;;;;;;5071608;28;20072;-48
2022/12/04 07:06:40;;;;;;;;;;;;;;;;;;5071568;28;19920;-55
2022/12/04 07:09:06;;;;;;;;;;;;;;;;;;5070675;28;19935;-56
2022/12/04 07:11:32;;;;;;;;;;;;;;;;;;5071734;28;20015;-56
2022/12/04 07:13:58;;;;;;;;;;;;;;;;;;5071929;28;20448;-55
2022/12/04 07:16:24;;;;;;;;;;;;;;;;;;5071755;28;20028;-52
2022/12/04 07:18:50;;;;;;;;;;;;;;;;;;5071380;28;20365;-57
2022/12/04 07:21:16;;;;;;;;;;;;;;;;;;5071726;28;19912;-58
2022/12/04 07:23:42;;;;;;;;;;;;;;;;;;5071839;28;19958;-57
2022/12/04 07:26:07;;;;;;;;;;;;;;;;;;5071386;28;19912;-54
2022/12/04 07:28:34;;;;;;;;;;;;;;;;;;5071677;28;19966;-57
2022/12/04 07:31:00;;;;;;;;;;;;;;;;;;5071782;28;19920;-56
2022/12/04 07:33:26;;;;;;;;;;;;;;;;;;5071581;28;19919;-57
2022/12/04 07:35:52;;;;;;;;;;;;;;;;;;5071626;28;19932;-57
2022/12/04 07:38:18;;;;;;;;;;;;;;;;;;5071223;28;20311;-57
2022/12/04 07:40:44;;;;;;;;;;;;;;;;;;5071457;28;19916;-58
2022/12/04 07:43:10;;;;;;;;;;;;;;;;;;5056217;28;19939;-55
2022/12/04 07:45:35;;;;;;;;;;;;;;;;;;5065530;28;19957;-55
2022/12/04 07:48:01;;;;;;;;;;;;;;;;;;5071265;28;20073;-56
2022/12/04 07:50:27;;;;;;;;;;;;;;;;;;5070172;28;19995;-55
2022/12/04 07:52:53;;;;;;;;;;;;;;;;;;5071329;28;19923;-53
2022/12/04 07:55:19;;;;;;;;;;;;;;;;;;5071509;28;20027;-55
2022/12/04 07:57:45;;;;;;;;;;;;;;;;;;5071519;28;19912;-54
2022/12/04 08:00:11;;;;;;;;;;;;;;;;;;5060925;28;19982;-55
2022/12/04 08:02:37;;;;;;;;;;;;;;;;;;5071667;28;20428;-54
2022/12/04 08:05:03;;;;;;;;;;;;;;;;;;5071314;28;19913;-56
2022/12/04 08:07:29;;;;;;;;;;;;;;;;;;5066548;28;19928;-57
2022/12/04 08:09:55;;;;;;;;;;;;;;;;;;5070964;28;19917;-56
2022/12/04 08:12:21;;;;;;;;;;;;;;;;;;5071219;28;19920;-55
2022/12/04 08:14:46;;;;;;;;;;;;;;;;;;5062099;28;19912;-56
2022/12/04 08:17:12;;;;;;;;;;;;;;;;;;5069223;28;19920;-57
2022/12/04 08:19:38;;;;;;;;;;;;;;;;;;5071395;28;19961;-56
2022/12/04 08:22:04;;;;;;;;;;;;;;;;;;5074623;28;19966;-53
2022/12/04 08:24:30;;;;;;;;;;;;;;;;;;5068550;28;19928;-57
2022/12/04 08:26:56;;;;;;;;;;;;;;;;;;5088424;28;19912;-58
2022/12/04 08:29:22;;;;;;;;;;;;;;;;;;5091895;28;20011;-57
2022/12/04 08:31:48;;;;;;;;;;;;;;;;;;5060805;28;20011;-55
2022/12/04 08:34:14;;;;;;;;;;;;;;;;;;5054697;28;20000;-51
2022/12/04 08:36:40;;;;;;;;;;;;;;;;;;5054853;28;20428;-57
2022/12/04 08:39:07;;;;;;;;;;;;;;;;;;5066355;28;19921;-57
2022/12/04 08:41:33;;;;;;;;;;;;;;;;;;5069681;28;19966;-57
2022/12/04 08:43:59;;;;;;;;;;;;;;;;;;5071094;28;19912;-56
2022/12/04 08:46:25;;;;;;;;;;;;;;;;;;5074143;28;19912;-56
2022/12/04 08:48:51;;;;;;;;;;;;;;;;;;5074089;28;20331;-57
2022/12/04 08:51:17;;;;;;;;;;;;;;;;;;5072419;28;19959;-54
2022/12/04 08:53:43;;;;;;;;;;;;;;;;;;5073988;28;20415;-55
2022/12/04 08:56:09;;;;;;;;;;;;;;;;;;5073969;28;20011;-54
2022/12/04 08:58:35;;;;;;;;;;;;;;;;;;5074189;28;19909;-53
2022/12/04 09:01:01;;;;;;;;;;;;;;;;;;5074002;28;19920;-56
2022/12/04 09:03:27;;;;;;;;;;;;;;;;;;5073928;28;19924;-55
2022/12/04 09:05:53;;;;;;;;;;;;;;;;;;5063670;28;19917;-56
2022/12/04 09:08:19;;;;;;;;;;;;;;;;;;5072090;28;19916;-56
2022/12/04 09:10:45;;;;;;;;;;;;;;;;;;5080733;28;19912;-53
2022/12/04 09:13:10;;;;;;;;;;;;;;;;;;5074092;28;20003;-56
2022/12/04 09:15:36;;;;;;;;;;;;;;;;;;5057897;28;19908;-53
2022/12/04 09:18:02;;;;;;;;;;;;;;;;;;5053876;28;19993;-56
2022/12/04 09:20:28;;;;;;;;;;;;;;;;;;5053758;28;20003;-57
2022/12/04 09:22:54;;;;;;;;;;;;;;;;;;5052620;28;20429;-56
2022/12/04 09:25:20;;;;;;;;;;;;;;;;;;5052581;28;20003;-55
2022/12/04 09:27:46;;;;;;;;;;;;;;;;;;5068508;28;19975;-56
2022/12/04 09:30:12;;;;;;;;;;;;;;;;;;5073408;28;19908;-57
2022/12/04 09:32:38;;;;;;;;;;;;;;;;;;5072984;28;19934;-56
2022/12/04 09:35:04;;;;;;;;;;;;;;;;;;5073590;28;19958;-56
2022/12/04 09:37:30;;;;;;;;;;;;;;;;;;5073596;28;19912;-56
2022/12/04 09:39:55;;;;;;;;;;;;;;;;;;5072323;28;20360;-53
2022/12/04 09:42:21;;;;;;;;;;;;;;;;;;5070891;28;19958;-53
2022/12/04 09:44:47;;;;;;;;;;;;;;;;;;5072830;28;19916;-56
2022/12/04 09:47:13;;;;;;;;;;;;;;;;;;5073171;28;20400;-56
2022/12/04 09:49:39;;;;;;;;;;;;;;;;;;5071467;28;20418;-56
2022/12/04 09:52:05;;;;;;;;;;;;;;;;;;5063353;28;19923;-53
2022/12/04 09:54:31;;;;;;;;;;;;;;;;;;5071156;28;20376;-56
2022/12/04 09:56:57;;;;;;;;;;;;;;;;;;5073084;28;19958;-52
2022/12/04 09:59:23;;;;;;;;;;;;;;;;;;5070526;28;19912;-55
2022/12/04 10:01:49;;;;;;;;;;;;;;;;;;5067702;28;19919;-53
2022/12/04 10:04:16;;;;;;;;;;;;;;;;;;5072211;28;19934;-56
2022/12/04 10:06:42;;;;;;;;;;;;;;;;;;5071575;28;19912;-53
2022/12/04 10:09:08;;;;;;;;;;;;;;;;;;5072525;28;20014;-56
2022/12/04 10:11:34;;;;;;;;;;;;;;;;;;5072812;28;20003;-56
2022/12/04 10:14:00;;;;;;;;;;;;;;;;;;5072719;28;19927;-56
2022/12/04 10:16:26;;;;;;;;;;;;;;;;;;5072493;28;20391;-58
2022/12/04 10:18:52;;;;;;;;;;;;;;;;;;5072554;28;19913;-54
2022/12/04 10:21:18;;;;;;;;;;;;;;;;;;5072658;28;19915;-55
2022/12/04 10:23:44;;;;;;;;;;;;;;;;;;5071379;28;19909;-57
2022/12/04 10:26:09;;;;;;;;;;;;;;;;;;5072495;28;19908;-56
2022/12/04 10:28:36;;;;;;;;;;;;;;;;;;5072387;28;19908;-57
2022/12/04 10:31:02;;;;;;;;;;;;;;;;;;5072403;28;19913;-56
2022/12/04 10:33:28;;;;;;;;;;;;;;;;;;5072389;28;19945;-56
2022/12/04 10:35:54;;;;;;;;;;;;;;;;;;5072446;28;19912;-57
2022/12/04 10:38:20;;;;;;;;;;;;;;;;;;5072348;28;19955;-57
2022/12/04 10:40:47;;;;;;;;;;;;;;;;;;5071133;28;19909;-57
2022/12/04 10:43:13;;;;;;;;;;;;;;;;;;5071770;28;20319;-56
2022/12/04 10:45:39;;;;;;;;;;;;;;;;;;5071907;28;19908;-58
2022/12/04 10:48:06;;;;;;;;;;;;;;;;;;5072147;28;19953;-57
2022/12/04 10:50:32;;;;;;;;;;;;;;;;;;5072279;28;19943;-54
2022/12/04 10:52:58;;;;;;;;;;;;;;;;;;5072158;28;19955;-54
2022/12/04 10:55:24;;;;;;;;;;;;;;;;;;5072225;28;19951;-57
2022/12/04 10:57:50;;;;;;;;;;;;;;;;;;5072075;28;19956;-56
2022/12/04 11:00:16;;;;;;;;;;;;;;;;;;5071938;28;19919;-56
2022/12/04 11:02:42;;;;;;;;;;;;;;;;;;5072085;28;19908;-58
2022/12/04 11:05:09;;;;;;;;;;;;;;;;;;5070763;28;19908;-55
2022/12/04 11:07:35;;;;;;;;;;;;;;;;;;5072131;28;19916;-56
2022/12/04 11:10:02;;;;;;;;;;;;;;;;;;5071856;28;20379;-58
2022/12/04 11:12:28;;;;;;;;;;;;;;;;;;5072339;28;19912;-57
2022/12/04 11:14:54;;;;;;;;;;;;;;;;;;5071927;28;19908;-58
2022/12/04 11:17:20;;;;;;;;;;;;;;;;;;5071861;28;19909;-56
2022/12/04 11:19:47;;;;;;;;;;;;;;;;;;5071296;28;20308;-56
2022/12/04 11:22:13;;;;;;;;;;;;;;;;;;5072026;28;20376;-57
2022/12/04 11:24:39;;;;;;;;;;;;;;;;;;5071967;28;19908;-56
2022/12/04 11:27:05;;;;;;;;;;;;;;;;;;5071810;28;19944;-56
2022/12/04 11:29:31;;;;;;;;;;;;;;;;;;5071780;28;20261;-56
2022/12/04 11:31:57;;;;;;;;;;;;;;;;;;5070426;28;19958;-56
2022/12/04 11:34:23;;;;;;;;;;;;;;;;;;5071799;28;19916;-57
2022/12/04 11:36:49;;;;;;;;;;;;;;;;;;5072059;28;20312;-56
2022/12/04 11:39:15;;;;;;;;;;;;;;;;;;5071637;28;19919;-58
2022/12/04 11:41:41;;;;;;;;;;;;;;;;;;5071734;28;20396;-54
2022/12/04 11:44:07;;;;;;;;;;;;;;;;;;5071764;28;19934;-58
2022/12/04 11:46:33;;;;;;;;;;;;;;;;;;5069731;28;19913;-57
2022/12/04 11:48:59;;;;;;;;;;;;;;;;;;5070944;28;19913;-55
2022/12/04 11:51:25;;;;;;;;;;;;;;;;;;5071208;28;19921;-57
2022/12/04 11:53:53;;;;;;;;;;;;;;;;;;5071585;28;19912;-57
2022/12/04 11:56:18;;;;;;;;;;;;;;;;;;5062623;28;19913;-58
2022/12/04 11:58:44;;;;;;;;;;;;;;;;;;5055547;28;19970;-58
2022/12/04 12:01:10;;;;;;;;;;;;;;;;;;5064630;28;20369;-57
2022/12/04 12:03:36;;;;;;;;;;;;;;;;;;5071853;28;19920;-55
2022/12/04 12:06:02;;;;;;;;;;;;;;;;;;5075017;28;19916;-55
2022/12/04 12:08:28;;;;;;;;;;;;;;;;;;5125878;22;19923;-49
2022/12/04 12:10:54;;;;;;;;;;;;;;;;;;5092748;28;19912;-49
2022/12/04 12:13:20;;;;;;;;;;;;;;;;;;5112876;28;19914;-50
2022/12/04 12:15:46;;;;;;;;;;;;;;;;;;5104591;28;19920;-49
2022/12/04 12:18:12;;;;;;;;;;;;;;;;;;5106950;28;19916;-50
2022/12/04 12:20:38;;;;;;;;;;;;;;;;;;5109816;28;20285;-50
2022/12/04 12:23:03;;;;;;;;;;;;;;;;;;5105284;28;19912;-49
2022/12/04 12:25:29;;;;;;;;;;;;;;;;;;5105582;28;20391;-49
2022/12/04 12:27:55;;;;;;;;;;;;;;;;;;5115111;28;19934;-52
2022/12/04 12:30:21;;;;;;;;;;;;;;;;;;5104786;28;20015;-52
2022/12/04 12:32:47;;;;;;;;;;;;;;;;;;5099739;28;20002;-51
2022/12/04 12:35:13;;;;;;;;;;;;;;;;;;5098650;28;20390;-51
2022/12/04 12:37:39;;;;;;;;;;;;;;;;;;5100407;28;19912;-50
2022/12/04 12:40:05;;;;;;;;;;;;;;;;;;5115090;28;20006;-51
2022/12/04 12:42:31;;;;;;;;;;;;;;;;;;5115330;28;20002;-49
2022/12/04 12:44:57;;;;;;;;;;;;;;;;;;5113627;28;20002;-51
2022/12/04 12:47:23;;;;;;;;;;;;;;;;;;5109181;28;20295;-50
2022/12/04 12:49:49;;;;;;;;;;;;;;;;;;5105147;28;20276;-49
2022/12/04 12:52:16;;;;;;;;;;;;;;;;;;5106850;28;19961;-49
2022/12/04 12:54:42;;;;;;;;;;;;;;;;;;5115355;28;19908;-49
2022/12/04 12:57:07;;;;;;;;;;;;;;;;;;5099415;28;20299;-51
2022/12/04 12:59:34;;;;;;;;;;;;;;;;;;5095804;28;19908;-50
2022/12/04 13:02:00;;;;;;;;;;;;;;;;;;5105762;28;19912;-52
2022/12/04 13:04:26;;;;;;;;;;;;;;;;;;5104482;28;19908;-49
2022/12/04 13:06:53;;;;;;;;;;;;;;;;;;5103283;28;19984;-51
2022/12/04 13:09:19;;;;;;;;;;;;;;;;;;5103151;28;19907;-50
2022/12/04 13:11:44;;;;;;;;;;;;;;;;;;5100416;28;19924;-50
2022/12/04 13:14:11;;;;;;;;;;;;;;;;;;5103048;28;19912;-51
2022/12/04 13:16:37;;;;;;;;;;;;;;;;;;5102680;28;19912;-50
2022/12/04 13:19:03;;;;;;;;;;;;;;;;;;5104528;28;20024;-50
2022/12/04 13:21:29;;;;;;;;;;;;;;;;;;5104192;28;20392;-51
2022/12/04 13:23:56;;;;;;;;;;;;;;;;;;5103174;28;19912;-50
2022/12/04 13:26:21;;;;;;;;;;;;;;;;;;5102804;28;19912;-50
2022/12/04 13:28:47;;;;;;;;;;;;;;;;;;5107100;28;19935;-50
2022/12/04 13:31:13;;;;;;;;;;;;;;;;;;5107410;28;19916;-51
2022/12/04 13:33:39;;;;;;;;;;;;;;;;;;5111342;28;19912;-50
2022/12/04 13:36:05;;;;;;;;;;;;;;;;;;5113772;28;19919;-51
2022/12/04 13:38:31;;;;;;;;;;;;;;;;;;5113901;28;19951;-50
2022/12/04 13:40:57;;;;;;;;;;;;;;;;;;5113992;28;19943;-49
2022/12/04 13:43:23;;;;;;;;;;;;;;;;;;5103856;28;19959;-49
2022/12/04 13:45:49;;;;;;;;;;;;;;;;;;5088877;28;19912;-52
2022/12/04 13:48:15;;;;;;;;;;;;;;;;;;5104678;28;19912;-50
2022/12/04 13:50:41;;;;;;;;;;;;;;;;;;5086847;28;19911;-52
2022/12/04 13:53:07;;;;;;;;;;;;;;;;;;5113905;28;20049;-50
2022/12/04 13:55:33;;;;;;;;;;;;;;;;;;5103995;28;19920;-52
2022/12/04 13:57:59;;;;;;;;;;;;;;;;;;5098852;28;19912;-53
2022/12/04 14:00:25;;;;;;;;;;;;;;;;;;5107012;28;20410;-51
2022/12/04 14:02:50;;;;;;;;;;;;;;;;;;5100170;28;19912;-50
2022/12/04 14:05:16;;;;;;;;;;;;;;;;;;5101204;28;19916;-50
2022/12/04 14:07:42;;;;;;;;;;;;;;;;;;5111789;28;20253;-53
2022/12/04 14:10:08;;;;;;;;;;;;;;;;;;5113440;28;19961;-51
2022/12/04 14:12:35;;;;;;;;;;;;;;;;;;5095135;28;19915;-50
2022/12/04 14:15:01;;;;;;;;;;;;;;;;;;5111739;28;19912;-50
2022/12/04 14:17:26;;;;;;;;;;;;;;;;;;5098221;28;19980;-50
2022/12/04 14:19:52;;;;;;;;;;;;;;;;;;5094820;28;19912;-52
2022/12/04 14:22:18;;;;;;;;;;;;;;;;;;5113378;28;20338;-51
2022/12/04 14:24:44;;;;;;;;;;;;;;;;;;5111836;28;19908;-51
2022/12/04 14:27:10;;;;;;;;;;;;;;;;;;5094009;28;19916;-50
2022/12/04 14:29:36;;;;;;;;;;;;;;;;;;5092832;28;19948;-51
2022/12/04 14:32:02;;;;;;;;;;;;;;;;;;5098390;28;20027;-50
2022/12/04 14:34:28;;;;;;;;;;;;;;;;;;5113086;28;19908;-50
2022/12/04 14:36:54;;;;;;;;;;;;;;;;;;5112647;28;19908;-50
2022/12/04 14:39:20;;;;;;;;;;;;;;;;;;5111448;28;19996;-50
2022/12/04 14:41:46;;;;;;;;;;;;;;;;;;5109519;28;20380;-50
2022/12/04 14:44:12;;;;;;;;;;;;;;;;;;5101340;28;19912;-53
2022/12/04 14:46:38;;;;;;;;;;;;;;;;;;5111306;28;19918;-53
2022/12/04 14:49:04;;;;;;;;;;;;;;;;;;5110300;28;20002;-50
2022/12/04 14:51:30;;;;;;;;;;;;;;;;;;5094651;28;19915;-55
2022/12/04 14:53:56;;;;;;;;;;;;;;;;;;5096004;28;20369;-53
2022/12/04 14:56:22;;;;;;;;;;;;;;;;;;5087545;28;20007;-52
2022/12/04 14:58:48;;;;;;;;;;;;;;;;;;5075270;28;19962;-51
2022/12/04 15:01:14;;;;;;;;;;;;;;;;;;5098159;28;19920;-52
2022/12/04 15:03:39;;;;;;;;;;;;;;;;;;5116913;27;19916;-51
2022/12/04 15:06:05;;;;;;;;;;;;;;;;;;5114748;28;20006;-50
2022/12/04 15:08:31;;;;;;;;;;;;;;;;;;5113158;28;20364;-52
2022/12/04 15:13:42;;;;;;;;;;;;;;;;;;5104114;28;19918;-50
2022/12/04 15:16:08;;;;;;;;;;;;;;;;;;5103710;28;19908;-50
2022/12/04 15:18:34;;;;;;;;;;;;;;;;;;5097938;28;19908;-52
2022/12/04 15:21:00;;;;;;;;;;;;;;;;;;5112536;28;19915;-51
2022/12/04 15:23:26;;;;;;;;;;;;;;;;;;5111060;28;20264;-50
2022/12/04 15:25:52;;;;;;;;;;;;;;;;;;5092109;28;19916;-50
2022/12/04 15:28:18;;;;;;;;;;;;;;;;;;5109453;28;19955;-52
2022/12/04 15:30:44;;;;;;;;;;;;;;;;;;5098393;28;19951;-53
2022/12/04 15:33:11;;;;;;;;;;;;;;;;;;5116587;28;20034;-49
2022/12/04 15:35:37;;;;;;;;;;;;;;;;;;5113247;28;19912;-53
2022/12/04 15:38:03;;;;;;;;;;;;;;;;;;5106602;28;20403;-52
2022/12/04 15:40:29;;;;;;;;;;;;;;;;;;5100277;28;19972;-51
2022/12/04 15:42:55;;;;;;;;;;;;;;;;;;5116466;28;19937;-51
2022/12/04 15:45:21;;;;;;;;;;;;;;;;;;5102340;28;19912;-52
2022/12/04 15:47:47;;;;;;;;;;;;;;;;;;5120771;27;19916;-53
2022/12/04 15:50:13;;;;;;;;;;;;;;;;;;5099006;27;20337;-51
2022/12/04 15:52:39;;;;;;;;;;;;;;;;;;5116058;28;19941;-51
2022/12/04 15:55:05;;;;;;;;;;;;;;;;;;5115896;28;20004;-53
2022/12/04 15:57:30;;;;;;;;;;;;;;;;;;5100584;28;19943;-49
2022/12/04 16:00:00;;;;;;;;;;;;;;;;;;5105925;28;19957;-50
2022/12/04 16:02:26;;;;;;;;;;;;;;;;;;5103027;28;19916;-49
2022/12/04 16:04:51;;;;;;;;;;;;;;;;;;5098382;28;20024;-51
2022/12/04 16:07:17;;;;;;;;;;;;;;;;;;5115350;28;20006;-50
2022/12/04 16:09:43;;;;;;;;;;;;;;;;;;5115658;28;19907;-51
2022/12/04 16:12:09;;;;;;;;;;;;;;;;;;5114434;28;19916;-50
2022/12/04 16:14:35;;;;;;;;;;;;;;;;;;5115263;28;19933;-50
2022/12/04 16:17:01;;;;;;;;;;;;;;;;;;5115128;28;19908;-51
2022/12/04 16:19:27;;;;;;;;;;;;;;;;;;5115197;28;19943;-50
2022/12/04 16:21:54;;;;;;;;;;;;;;;;;;5115693;28;19950;-52
2022/12/04 16:24:20;;;;;;;;;;;;;;;;;;5115624;28;20375;-50
2022/12/04 16:26:46;;;;;;;;;;;;;;;;;;5115505;28;19908;-52
2022/12/04 16:29:12;;;;;;;;;;;;;;;;;;5096990;28;20003;-49
2022/12/04 16:31:38;;;;;;;;;;;;;;;;;;5115296;28;19962;-49
2022/12/04 16:34:04;;;;;;;;;;;;;;;;;;5115663;28;20332;-50
2022/12/04 16:36:30;;;;;;;;;;;;;;;;;;5115262;28;19947;-51
2022/12/04 16:38:55;;;;;;;;;;;;;;;;;;5115053;28;19915;-51
2022/12/04 16:41:21;;;;;;;;;;;;;;;;;;5115219;28;19908;-49
2022/12/04 16:43:47;;;;;;;;;;;;;;;;;;5096962;28;19908;-50
2022/12/04 16:46:13;;;;;;;;;;;;;;;;;;5115087;28;19908;-51
2022/12/04 16:48:39;;;;;;;;;;;;;;;;;;5114914;28;19912;-50
2022/12/04 16:51:05;;;;;;;;;;;;;;;;;;5115229;28;19912;-49
2022/12/04 16:53:31;;;;;;;;;;;;;;;;;;5115008;28;19908;-52